createdAt,value
2019-05-05T00:02:16.942Z,99.90
2019-05-05T00:04:55.657Z,99.90
2019-05-05T00:07:27.906Z,99.90
2019-05-05T00:09:59.277Z,99.90
2019-05-05T00:12:37.465Z,99.90
2019-05-05T00:15:26.168Z,99.90
2019-05-05T00:17:57.440Z,99.90
2019-05-05T00:20:28.853Z,99.90
2019-05-05T00:22:59.997Z,99.90
2019-05-05T00:25:31.829Z,99.90
2019-05-05T00:28:01.408Z,99.90
2019-05-05T00:30:34.308Z,99.90
2019-05-05T00:33:06.085Z,99.90
2019-05-05T00:35:37.245Z,99.90
2019-05-05T00:38:08.162Z,99.90
2019-05-05T00:40:39.406Z,99.90
2019-05-05T00:43:09.856Z,99.90
2019-05-05T00:45:42.200Z,99.90
2019-05-05T00:48:21.080Z,99.90
2019-05-05T00:50:55.647Z,99.90
2019-05-05T00:53:25.283Z,99.90
2019-05-05T00:55:55.184Z,99.90
2019-05-05T00:58:27.446Z,99.90
2019-05-05T01:01:00.294Z,99.90
2019-05-05T01:03:31.323Z,99.90
2019-05-05T01:06:19.205Z,99.90
2019-05-05T01:08:48.789Z,99.90
2019-05-05T01:11:21.093Z,99.90
2019-05-05T01:13:52.271Z,99.90
2019-05-05T01:16:24.720Z,99.90
2019-05-05T01:18:56.400Z,99.90
2019-05-05T01:21:27.897Z,99.90
2019-05-05T01:23:59.652Z,99.90
2019-05-05T01:26:30.800Z,99.90
2019-05-05T01:29:01.344Z,99.90
2019-05-05T01:31:31.217Z,99.90
2019-05-05T01:34:09.001Z,99.90
2019-05-05T01:36:39.897Z,99.90
2019-05-05T01:39:30.881Z,99.90
2019-05-05T01:42:02.362Z,99.90
2019-05-05T01:44:35.205Z,99.90
2019-05-05T01:47:05.399Z,99.90
2019-05-05T01:49:36.992Z,99.90
2019-05-05T01:52:08.541Z,99.90
2019-05-05T01:54:38.045Z,99.90
2019-05-05T01:57:10.108Z,99.90
2019-05-05T01:59:44.895Z,99.90
2019-05-05T02:02:16.593Z,99.90
2019-05-05T02:04:47.813Z,99.90
2019-05-05T02:07:18.093Z,99.90
2019-05-05T02:09:49.202Z,99.90
2019-05-05T02:12:19.604Z,99.90
2019-05-05T02:14:49.337Z,99.90
2019-05-05T02:17:20.288Z,99.90
2019-05-05T02:19:51.438Z,99.90
2019-05-05T02:22:22.661Z,99.90
2019-05-05T02:24:55.152Z,99.90
2019-05-05T02:27:26.313Z,99.90
2019-05-05T02:30:06.171Z,99.90
2019-05-05T02:32:48.513Z,99.90
2019-05-05T02:35:18.420Z,99.90
2019-05-05T02:37:49.630Z,99.90
2019-05-05T02:40:24.378Z,99.90
2019-05-05T02:42:55.139Z,99.90
2019-05-05T02:45:48.400Z,99.90
2019-05-05T02:48:21.378Z,99.90
2019-05-05T02:51:01.217Z,99.90
2019-05-05T02:53:30.650Z,99.90
2019-05-05T02:56:05.489Z,99.90
2019-05-05T02:58:38.832Z,99.90
2019-05-05T03:01:17.165Z,99.90
2019-05-05T03:03:49.156Z,99.90
2019-05-05T03:06:23.809Z,99.90
2019-05-05T03:08:57.577Z,99.90
2019-05-05T03:11:31.131Z,99.90
2019-05-05T03:14:05.389Z,99.90
2019-05-05T03:16:37.975Z,99.90
2019-05-05T03:19:10.882Z,99.90
2019-05-05T03:21:44.049Z,99.90
2019-05-05T03:24:15.156Z,99.90
2019-05-05T03:26:47.237Z,99.90
2019-05-05T03:29:20.893Z,99.90
2019-05-05T03:31:51.719Z,99.90
2019-05-05T03:34:24.013Z,99.90
2019-05-05T03:36:56.103Z,99.90
2019-05-05T03:39:29.534Z,99.90
2019-05-05T03:42:03.616Z,99.90
2019-05-05T03:44:40.301Z,99.90
2019-05-05T03:47:11.529Z,99.90
2019-05-05T03:49:41.869Z,99.90
2019-05-05T03:52:14.170Z,99.90
2019-05-05T03:54:44.858Z,99.90
2019-05-05T03:57:15.678Z,99.90
2019-05-05T03:59:48.490Z,99.90
2019-05-05T04:02:26.594Z,99.90
2019-05-05T04:05:08.693Z,99.90
2019-05-05T04:07:39.244Z,99.90
2019-05-05T04:10:11.201Z,99.90
2019-05-05T04:12:43.499Z,99.90
2019-05-05T04:15:15.049Z,99.90
2019-05-05T04:17:53.631Z,99.90
2019-05-05T04:20:26.709Z,99.90
2019-05-05T04:22:58.307Z,99.90
2019-05-05T04:25:29.726Z,99.90
2019-05-05T04:28:01.064Z,99.90
2019-05-05T04:30:33.843Z,99.90
2019-05-05T04:33:05.393Z,99.90
2019-05-05T04:35:36.703Z,99.90
2019-05-05T04:38:07.068Z,99.90
2019-05-05T04:40:37.883Z,99.90
2019-05-05T04:43:09.457Z,99.90
2019-05-05T04:45:39.069Z,99.90
2019-05-05T04:48:13.784Z,99.90
2019-05-05T04:50:45.068Z,99.90
2019-05-05T04:53:16.481Z,99.90
2019-05-05T04:55:45.908Z,99.90
2019-05-05T04:58:15.428Z,99.90
2019-05-05T05:00:44.916Z,99.90
2019-05-05T05:03:34.479Z,99.90
2019-05-05T05:06:05.813Z,99.90
2019-05-05T05:08:35.245Z,99.90
2019-05-05T05:11:04.785Z,99.90
2019-05-05T05:13:34.872Z,99.90
2019-05-05T05:16:04.852Z,99.90
2019-05-05T05:18:34.552Z,99.90
2019-05-05T05:21:04.246Z,99.90
2019-05-05T05:23:34.193Z,99.90
2019-05-05T05:26:05.057Z,99.90
2019-05-05T05:28:35.038Z,99.90
2019-05-05T05:31:04.610Z,99.90
2019-05-05T05:33:34.629Z,99.90
2019-05-05T05:36:04.277Z,99.90
2019-05-05T05:38:34.579Z,99.90
2019-05-05T05:41:23.925Z,99.90
2019-05-05T05:43:55.107Z,99.90
2019-05-05T05:46:44.440Z,99.90
2019-05-05T05:49:15.513Z,99.90
2019-05-05T05:51:44.940Z,99.90
2019-05-05T05:54:14.404Z,99.90
2019-05-05T05:56:44.679Z,99.90
2019-05-05T05:59:14.353Z,99.90
2019-05-05T06:01:46.682Z,99.90
2019-05-05T06:04:16.428Z,99.90
2019-05-05T06:06:45.865Z,99.90
2019-05-05T06:09:15.413Z,99.90
2019-05-05T06:11:44.841Z,99.90
2019-05-05T06:14:14.688Z,99.90
2019-05-05T06:16:44.632Z,99.90
2019-05-05T06:19:14.585Z,99.90
2019-05-05T06:21:44.111Z,99.90
2019-05-05T06:24:14.060Z,99.90
2019-05-05T06:26:44.529Z,99.90
2019-05-05T06:29:14.680Z,99.90
2019-05-05T06:31:44.859Z,99.90
2019-05-05T06:34:14.873Z,99.90
2019-05-05T06:36:44.593Z,99.90
2019-05-05T06:39:14.241Z,99.90
2019-05-05T06:41:45.313Z,99.90
2019-05-05T06:44:26.010Z,99.90
2019-05-05T06:47:13.559Z,99.90
2019-05-05T06:49:43.785Z,99.90
2019-05-05T06:52:14.243Z,99.90
2019-05-05T06:54:44.089Z,99.90
2019-05-05T06:57:13.962Z,99.90
2019-05-05T06:59:43.899Z,99.90
2019-05-05T07:02:14.565Z,99.90
2019-05-05T07:04:44.740Z,99.90
2019-05-05T07:07:14.764Z,99.90
2019-05-05T07:09:44.460Z,99.90
2019-05-05T07:12:14.202Z,99.90
2019-05-05T07:14:44.495Z,99.90
2019-05-05T07:17:14.301Z,99.90
2019-05-05T07:19:44.898Z,98.40
2019-05-05T07:22:17.621Z,98.90
2019-05-05T07:24:46.121Z,97.20
2019-05-05T07:27:16.053Z,98.60
2019-05-05T07:29:45.553Z,99.90
2019-05-05T07:32:14.984Z,99.90
2019-05-05T07:34:46.406Z,95.40
2019-05-05T07:37:16.172Z,96.70
2019-05-05T07:39:45.668Z,95.00
2019-05-05T07:42:15.136Z,95.80
2019-05-05T07:44:44.650Z,96.90
2019-05-05T07:47:14.643Z,97.20
2019-05-05T07:49:44.310Z,98.30
2019-05-05T07:52:15.086Z,98.60
2019-05-05T07:54:44.797Z,95.20
2019-05-05T07:57:14.691Z,95.80
2019-05-05T07:59:45.053Z,96.40
2019-05-05T08:02:14.944Z,93.90
2019-05-05T08:04:44.761Z,93.60
2019-05-05T08:07:14.822Z,90.30
2019-05-05T08:09:44.608Z,90.90
2019-05-05T08:12:14.206Z,87.10
2019-05-05T08:14:45.167Z,83.70
2019-05-05T08:17:18.673Z,86.00
2019-05-05T08:19:55.392Z,83.80
2019-05-05T08:22:25.292Z,81.30
2019-05-05T08:25:11.124Z,76.00
2019-05-05T08:27:53.563Z,76.70
2019-05-05T08:30:27.633Z,77.80
2019-05-05T08:32:57.208Z,78.60
2019-05-05T08:35:26.662Z,76.70
2019-05-05T08:37:56.556Z,76.50
2019-05-05T08:40:26.764Z,74.70
2019-05-05T08:42:56.198Z,73.80
2019-05-05T08:45:26.773Z,74.80
2019-05-05T08:47:56.425Z,72.10
2019-05-05T08:50:27.129Z,70.70
2019-05-05T08:52:56.896Z,71.70
2019-05-05T08:55:28.450Z,70.60
2019-05-05T08:57:57.551Z,71.60
2019-05-05T09:00:27.518Z,71.40
2019-05-05T09:02:57.423Z,71.30
2019-05-05T09:05:26.933Z,67.90
2019-05-05T09:07:56.744Z,67.00
2019-05-05T09:10:45.864Z,66.90
2019-05-05T09:13:15.467Z,67.50
2019-05-05T09:15:44.900Z,62.00
2019-05-05T09:18:14.484Z,66.10
2019-05-05T09:20:44.657Z,65.60
2019-05-05T09:23:14.900Z,64.30
2019-05-05T09:25:49.798Z,62.60
2019-05-05T09:28:29.720Z,63.30
2019-05-05T09:30:59.733Z,63.50
2019-05-05T09:33:29.292Z,61.60
2019-05-05T09:35:58.952Z,63.20
2019-05-05T09:38:30.313Z,63.10
2019-05-05T09:41:00.450Z,63.30
2019-05-05T09:43:30.305Z,62.50
2019-05-05T09:45:59.961Z,61.60
2019-05-05T09:48:29.469Z,58.40
2019-05-05T09:50:59.000Z,57.60
2019-05-05T09:53:28.665Z,58.50
2019-05-05T09:55:58.113Z,60.10
2019-05-05T09:58:27.639Z,62.10
2019-05-05T10:00:57.277Z,60.10
2019-05-05T10:03:26.796Z,60.80
2019-05-05T10:05:56.240Z,59.90
2019-05-05T10:08:26.174Z,60.50
2019-05-05T10:10:55.763Z,58.80
2019-05-05T10:13:25.554Z,58.50
2019-05-05T10:15:55.170Z,58.00
2019-05-05T10:18:25.523Z,58.40
2019-05-05T10:20:55.247Z,57.60
2019-05-05T10:23:28.112Z,56.60
2019-05-05T10:25:59.280Z,57.90
2019-05-05T10:28:28.884Z,56.60
2019-05-05T10:30:58.435Z,55.50
2019-05-05T10:33:28.024Z,55.30
2019-05-05T10:35:57.858Z,55.30
2019-05-05T10:38:27.492Z,54.50
2019-05-05T10:40:57.016Z,54.30
2019-05-05T10:43:27.065Z,53.40
2019-05-05T10:45:57.290Z,54.50
2019-05-05T10:48:27.093Z,55.00
2019-05-05T10:50:56.685Z,53.60
2019-05-05T10:53:26.235Z,53.70
2019-05-05T10:55:55.761Z,53.40
2019-05-05T10:58:25.348Z,54.20
2019-05-05T11:00:56.641Z,50.60
2019-05-05T11:03:26.202Z,50.20
2019-05-05T11:05:56.053Z,49.10
2019-05-05T11:08:30.551Z,50.50
2019-05-05T11:10:58.807Z,49.20
2019-05-05T11:13:28.540Z,50.30
2019-05-05T11:15:58.097Z,47.90
2019-05-05T11:18:28.239Z,48.70
2019-05-05T11:20:57.739Z,48.20
2019-05-05T11:23:27.293Z,45.70
2019-05-05T11:25:56.832Z,42.50
2019-05-05T11:28:26.645Z,39.70
2019-05-05T11:30:56.524Z,40.80
2019-05-05T11:33:43.991Z,39.80
2019-05-05T11:36:21.022Z,36.10
2019-05-05T11:38:50.537Z,38.40
2019-05-05T11:41:20.381Z,41.00
2019-05-05T11:43:50.318Z,42.00
2019-05-05T11:46:19.914Z,43.10
2019-05-05T11:48:49.425Z,44.00
2019-05-05T11:51:18.966Z,45.50
2019-05-05T11:53:48.720Z,44.90
2019-05-05T11:56:18.631Z,44.60
2019-05-05T11:58:48.205Z,45.70
2019-05-05T12:01:17.721Z,46.80
2019-05-05T12:03:47.448Z,46.40
2019-05-05T12:06:17.363Z,46.20
2019-05-05T12:08:46.890Z,39.80
2019-05-05T12:11:16.785Z,36.30
2019-05-05T12:13:46.401Z,30.50
2019-05-05T12:16:17.634Z,28.40
2019-05-05T12:18:47.155Z,29.00
2019-05-05T12:21:17.156Z,29.30
2019-05-05T12:23:46.683Z,26.30
2019-05-05T12:26:26.937Z,27.30
2019-05-05T12:29:00.888Z,29.50
2019-05-05T12:31:33.951Z,31.80
2019-05-05T12:34:03.999Z,31.90
2019-05-05T12:36:34.165Z,34.70
2019-05-05T12:39:06.945Z,32.30
2019-05-05T12:41:36.509Z,29.10
2019-05-05T12:44:07.526Z,27.60
2019-05-05T12:46:44.459Z,26.00
2019-05-05T12:49:14.492Z,27.70
2019-05-05T12:51:44.001Z,26.50
2019-05-05T12:54:14.713Z,24.50
2019-05-05T12:56:44.722Z,24.50
2019-05-05T12:59:15.962Z,24.70
2019-05-05T13:01:45.590Z,25.80
2019-05-05T13:04:15.187Z,26.50
2019-05-05T13:06:45.173Z,27.30
2019-05-05T13:09:16.301Z,25.80
2019-05-05T13:11:45.768Z,25.30
2019-05-05T13:14:15.674Z,24.70
2019-05-05T13:16:52.810Z,27.10
2019-05-05T13:19:18.064Z,26.70
2019-05-05T13:21:54.164Z,24.40
2019-05-05T13:24:37.207Z,26.50
2019-05-05T13:27:11.107Z,28.10
2019-05-05T13:29:40.026Z,28.40
2019-05-05T13:32:09.611Z,28.50
2019-05-05T13:34:39.167Z,29.40
2019-05-05T13:37:08.845Z,29.90
2019-05-05T13:39:39.199Z,29.60
2019-05-05T13:42:08.801Z,29.30
2019-05-05T13:44:56.064Z,30.00
2019-05-05T13:47:28.320Z,30.00
2019-05-05T13:50:11.542Z,30.00
2019-05-05T13:52:41.089Z,30.30
2019-05-05T13:55:10.987Z,31.00
2019-05-05T13:57:40.538Z,31.00
2019-05-05T14:00:14.056Z,30.70
2019-05-05T14:02:43.971Z,30.90
2019-05-05T14:05:13.734Z,30.70
2019-05-05T14:07:43.728Z,29.20
2019-05-05T14:10:14.418Z,28.30
2019-05-05T14:12:44.172Z,29.20
2019-05-05T14:15:15.906Z,29.30
2019-05-05T14:17:46.252Z,29.40
2019-05-05T14:20:16.237Z,30.30
2019-05-05T14:22:45.847Z,31.20
2019-05-05T14:25:24.192Z,30.90
2019-05-05T14:27:54.175Z,31.20
2019-05-05T14:30:40.657Z,31.60
2019-05-05T14:33:11.904Z,31.80
2019-05-05T14:36:01.523Z,32.50
2019-05-05T14:38:35.366Z,30.80
2019-05-05T14:41:04.954Z,30.80
2019-05-05T14:43:34.564Z,30.70
2019-05-05T14:46:04.272Z,29.10
2019-05-05T14:48:37.009Z,29.00
2019-05-05T14:51:05.209Z,25.10
2019-05-05T14:53:34.858Z,24.20
2019-05-05T14:56:04.771Z,22.40
2019-05-05T14:58:34.661Z,22.00
2019-05-05T15:01:04.593Z,22.00
2019-05-05T15:03:34.044Z,22.50
2019-05-05T15:06:11.470Z,22.70
2019-05-05T15:08:48.753Z,24.10
2019-05-05T15:11:20.204Z,24.30
2019-05-05T15:13:49.762Z,26.30
2019-05-05T15:16:19.296Z,25.00
2019-05-05T15:18:48.904Z,24.90
2019-05-05T15:21:18.348Z,26.10
2019-05-05T15:23:48.134Z,25.20
2019-05-05T15:26:17.715Z,26.00
2019-05-05T15:28:58.575Z,27.50
2019-05-05T15:31:18.328Z,28.60
2019-05-05T15:33:48.308Z,29.50
2019-05-05T15:36:18.113Z,29.80
2019-05-05T15:38:47.622Z,30.70
2019-05-05T15:41:17.392Z,31.50
2019-05-05T15:43:46.834Z,32.40
2019-05-05T15:46:16.426Z,32.90
2019-05-05T15:48:46.057Z,33.10
2019-05-05T15:51:15.984Z,33.70
2019-05-05T15:53:45.545Z,34.00
2019-05-05T15:56:15.348Z,33.50
2019-05-05T15:58:44.788Z,33.50
2019-05-05T16:01:14.324Z,33.10
2019-05-05T16:03:44.194Z,32.60
2019-05-05T16:06:14.263Z,32.10
2019-05-05T16:08:44.574Z,32.40
2019-05-05T16:11:14.334Z,32.00
2019-05-05T16:13:44.074Z,32.00
2019-05-05T16:16:18.279Z,31.90
2019-05-05T16:19:05.247Z,34.30
2019-05-05T16:21:28.192Z,29.80
2019-05-05T16:24:03.506Z,28.50
2019-05-05T16:26:33.342Z,28.30
2019-05-05T16:29:04.145Z,27.60
2019-05-05T16:31:34.284Z,27.60
2019-05-05T16:34:14.275Z,28.70
2019-05-05T16:36:44.052Z,28.00
2019-05-05T16:39:13.820Z,28.90
2019-05-05T16:41:44.877Z,29.00
2019-05-05T16:44:15.830Z,27.20
2019-05-05T16:46:45.819Z,27.10
2019-05-05T16:49:15.374Z,25.90
2019-05-05T16:51:46.772Z,25.80
2019-05-05T16:54:20.755Z,25.70
2019-05-05T16:56:50.291Z,27.40
2019-05-05T16:59:19.887Z,26.90
2019-05-05T17:01:49.774Z,28.60
2019-05-05T17:04:19.312Z,28.40
2019-05-05T17:06:48.824Z,27.90
2019-05-05T17:09:18.386Z,28.20
2019-05-05T17:11:49.652Z,29.20
2019-05-05T17:14:29.969Z,28.60
2019-05-05T17:17:10.106Z,28.10
2019-05-05T17:19:41.726Z,29.50
2019-05-05T17:22:13.590Z,29.70
2019-05-05T17:24:44.054Z,28.80
2019-05-05T17:27:13.996Z,29.90
2019-05-05T17:29:44.124Z,30.00
2019-05-05T17:32:34.447Z,29.60
2019-05-05T17:35:04.887Z,30.00
2019-05-05T17:37:55.564Z,30.30
2019-05-05T17:40:27.013Z,30.90
2019-05-05T17:43:24.399Z,32.00
2019-05-05T17:46:03.924Z,32.60
2019-05-05T17:48:53.714Z,32.80
2019-05-05T17:51:43.675Z,33.50
2019-05-05T17:54:15.475Z,33.50
2019-05-05T17:56:45.003Z,33.80
2019-05-05T17:59:14.521Z,34.30
2019-05-05T18:01:44.557Z,34.70
2019-05-05T18:04:14.366Z,35.20
2019-05-05T18:06:51.218Z,35.30
2019-05-05T18:09:23.503Z,36.40
2019-05-05T18:12:16.981Z,37.30
2019-05-05T18:14:48.330Z,37.60
2019-05-05T18:17:18.245Z,38.30
2019-05-05T18:19:47.811Z,38.70
2019-05-05T18:22:17.264Z,39.20
2019-05-05T18:24:47.163Z,39.20
2019-05-05T18:27:16.710Z,39.80
2019-05-05T18:29:46.215Z,40.10
2019-05-05T18:32:15.657Z,40.70
2019-05-05T18:34:45.909Z,40.70
2019-05-05T18:37:15.558Z,41.00
2019-05-05T18:39:45.010Z,41.00
2019-05-05T18:42:19.637Z,41.40
2019-05-05T18:44:51.091Z,41.30
2019-05-05T18:47:21.198Z,41.80
2019-05-05T18:49:50.862Z,41.70
2019-05-05T18:52:20.436Z,41.60
2019-05-05T18:54:50.019Z,41.40
2019-05-05T18:57:19.841Z,41.70
2019-05-05T18:59:49.691Z,41.80
2019-05-05T19:02:36.366Z,42.10
2019-05-05T19:05:15.718Z,42.50
2019-05-05T19:10:25.660Z,43.00
2019-05-05T19:12:55.255Z,43.40
2019-05-05T19:15:28.677Z,43.50
2019-05-05T19:17:58.418Z,43.40
2019-05-05T19:20:29.616Z,43.40
2019-05-05T19:23:05.717Z,44.10
2019-05-05T19:25:35.731Z,44.30
2019-05-05T19:28:05.457Z,44.50
2019-05-05T19:30:36.111Z,44.10
2019-05-05T19:33:05.977Z,45.10
2019-05-05T19:35:44.120Z,46.20
2019-05-05T19:38:06.674Z,46.90
2019-05-05T19:40:36.485Z,46.30
2019-05-05T19:43:06.040Z,46.30
2019-05-05T19:45:35.952Z,46.20
2019-05-05T19:48:06.027Z,45.90
2019-05-05T19:50:46.910Z,46.90
2019-05-05T19:53:24.628Z,46.10
2019-05-05T19:55:55.330Z,47.00
2019-05-05T19:58:28.127Z,47.40
2019-05-05T20:00:59.669Z,47.00
2019-05-05T20:03:29.328Z,46.90
2019-05-05T20:05:58.904Z,47.60
2019-05-05T20:08:39.898Z,47.20
2019-05-05T20:10:59.688Z,47.40
2019-05-05T20:13:29.213Z,47.50
2019-05-05T20:16:15.796Z,49.00
2019-05-05T20:18:45.388Z,49.60
2019-05-05T20:21:15.274Z,49.60
2019-05-05T20:23:44.808Z,50.00
2019-05-05T20:26:14.581Z,49.70
2019-05-05T20:28:44.229Z,50.80
2019-05-05T20:31:14.239Z,50.50
2019-05-05T20:33:45.455Z,51.20
2019-05-05T20:36:18.234Z,52.00
2019-05-05T20:38:49.634Z,52.00
2019-05-05T20:41:20.703Z,52.10
2019-05-05T20:43:50.314Z,51.60
2019-05-05T20:46:20.013Z,51.60
2019-05-05T20:48:49.860Z,51.50
2019-05-05T20:51:19.453Z,50.80
2019-05-05T20:53:49.428Z,52.00
2019-05-05T20:56:19.066Z,52.00
2019-05-05T20:58:48.994Z,52.20
2019-05-05T21:01:18.754Z,52.60
2019-05-05T21:03:48.613Z,53.30
2019-05-05T21:06:18.205Z,53.40
2019-05-05T21:08:47.839Z,53.40
2019-05-05T21:11:17.354Z,53.60
2019-05-05T21:13:47.131Z,54.20
2019-05-05T21:16:17.057Z,54.20
2019-05-05T21:18:46.620Z,53.90
2019-05-05T21:21:18.117Z,53.50
2019-05-05T21:23:58.504Z,53.50
2019-05-05T21:26:46.035Z,53.80
2019-05-05T21:29:16.287Z,53.70
2019-05-05T21:31:46.232Z,54.20
2019-05-05T21:34:16.049Z,54.00
2019-05-05T21:36:45.522Z,54.20
2019-05-05T21:39:15.136Z,55.20
2019-05-05T21:41:46.397Z,55.10
2019-05-05T21:44:16.006Z,55.10
2019-05-05T21:46:45.812Z,55.50
2019-05-05T21:49:15.251Z,56.00
2019-05-05T21:51:53.995Z,55.90
2019-05-05T21:54:28.769Z,56.20
2019-05-05T21:57:16.120Z,55.80
2019-05-05T21:59:54.857Z,55.90
2019-05-05T22:02:17.588Z,56.30
2019-05-05T22:04:47.577Z,56.10
2019-05-05T22:07:17.389Z,56.10
2019-05-05T22:09:46.990Z,56.50
2019-05-05T22:12:16.624Z,56.50
2019-05-05T22:14:46.132Z,57.40
2019-05-05T22:17:15.569Z,57.10
2019-05-05T22:19:50.084Z,56.90
2019-05-05T22:22:21.577Z,56.90
2019-05-05T22:25:10.436Z,57.30
2019-05-05T22:27:39.863Z,57.50
2019-05-05T22:30:10.567Z,57.90
2019-05-05T22:32:40.157Z,57.70
2019-05-05T22:35:10.089Z,58.30
2019-05-05T22:37:39.796Z,58.60
2019-05-05T22:40:11.412Z,58.40
2019-05-05T22:42:40.845Z,58.50
2019-05-05T22:45:10.488Z,59.00
2019-05-05T22:47:59.375Z,58.60
2019-05-05T22:50:29.337Z,58.00
2019-05-05T22:52:59.252Z,58.60
2019-05-05T22:55:29.016Z,58.40
2019-05-05T22:57:58.905Z,58.70
2019-05-05T23:00:29.940Z,59.50
2019-05-05T23:03:17.750Z,60.60
2019-05-05T23:05:49.516Z,61.20
2019-05-05T23:08:19.021Z,62.50
2019-05-05T23:10:48.695Z,64.20
2019-05-05T23:13:19.841Z,64.90
2019-05-05T23:16:11.493Z,65.00
2019-05-05T23:18:41.065Z,66.40
2019-05-05T23:21:15.573Z,65.90
2019-05-05T23:24:03.708Z,65.20
2019-05-05T23:26:35.946Z,64.90
2019-05-05T23:29:05.839Z,65.80
2019-05-05T23:31:35.606Z,67.20
2019-05-05T23:34:05.193Z,65.70
2019-05-05T23:36:34.701Z,66.10
2019-05-05T23:39:06.420Z,66.10
2019-05-05T23:41:36.556Z,67.10
2019-05-05T23:44:06.136Z,65.60
2019-05-05T23:46:36.360Z,65.70
2019-05-05T23:49:06.171Z,66.00
2019-05-05T23:51:35.685Z,65.40
2019-05-05T23:54:05.234Z,65.10
2019-05-05T23:56:35.159Z,66.40
2019-05-05T23:59:04.675Z,65.20
